sensor_id;sensor_type;location;lat;lon;timestamp;pressure;altitude;pressure_sealevel;temperature;humidity
62201;BME280;48197;42.732;27.192;2023-03-19T00:01:24;100239.38;;;5.13;100.00
62201;BME280;48197;42.732;27.192;2023-03-19T00:03:50;100256.28;;;5.15;100.00
62201;BME280;48197;42.732;27.192;2023-03-19T00:06:17;100251.84;;;5.26;100.00
62201;BME280;48197;42.732;27.192;2023-03-19T00:08:44;100256.69;;;5.33;100.00
62201;BME280;48197;42.732;27.192;2023-03-19T00:11:11;100248.13;;;5.35;100.00
62201;BME280;48197;42.732;27.192;2023-03-19T00:13:38;100245.72;;;5.33;100.00
62201;BME280;48197;42.732;27.192;2023-03-19T00:16:05;100252.03;;;5.34;100.00
62201;BME280;48197;42.732;27.192;2023-03-19T00:18:34;100243.41;;;5.35;100.00
62201;BME280;48197;42.732;27.192;2023-03-19T00:21:00;100263.44;;;5.36;100.00
62201;BME280;48197;42.732;27.192;2023-03-19T00:23:27;100269.34;;;5.38;100.00
62201;BME280;48197;42.732;27.192;2023-03-19T00:25:53;100268.28;;;5.42;100.00
62201;BME280;48197;42.732;27.192;2023-03-19T00:28:20;100258.09;;;5.43;100.00
62201;BME280;48197;42.732;27.192;2023-03-19T00:30:46;100260.84;;;5.43;100.00
62201;BME280;48197;42.732;27.192;2023-03-19T00:33:13;100257.81;;;5.48;100.00
62201;BME280;48197;42.732;27.192;2023-03-19T00:35:40;100249.59;;;5.48;100.00
62201;BME280;48197;42.732;27.192;2023-03-19T00:38:07;100244.47;;;5.46;100.00
62201;BME280;48197;42.732;27.192;2023-03-19T00:40:34;100240.56;;;5.47;100.00
62201;BME280;48197;42.732;27.192;2023-03-19T00:43:00;100223.00;;;5.48;100.00
62201;BME280;48197;42.732;27.192;2023-03-19T00:45:27;100239.50;;;5.52;100.00
62201;BME280;48197;42.732;27.192;2023-03-19T00:47:56;100244.34;;;5.59;100.00
62201;BME280;48197;42.732;27.192;2023-03-19T00:50:24;100251.63;;;5.51;100.00
62201;BME280;48197;42.732;27.192;2023-03-19T00:52:51;100251.00;;;5.58;100.00
62201;BME280;48197;42.732;27.192;2023-03-19T00:55:17;100245.50;;;5.58;100.00
62201;BME280;48197;42.732;27.192;2023-03-19T00:57:44;100254.31;;;5.67;100.00
62201;BME280;48197;42.732;27.192;2023-03-19T01:00:11;100257.16;;;5.70;100.00
62201;BME280;48197;42.732;27.192;2023-03-19T01:02:38;100250.44;;;5.68;100.00
62201;BME280;48197;42.732;27.192;2023-03-19T01:05:05;100250.88;;;5.70;100.00
62201;BME280;48197;42.732;27.192;2023-03-19T01:07:33;100253.25;;;5.71;100.00
62201;BME280;48197;42.732;27.192;2023-03-19T01:10:00;100256.41;;;5.73;100.00
62201;BME280;48197;42.732;27.192;2023-03-19T01:12:27;100256.81;;;5.72;100.00
62201;BME280;48197;42.732;27.192;2023-03-19T01:14:54;100252.09;;;5.72;100.00
62201;BME280;48197;42.732;27.192;2023-03-19T01:17:20;100262.34;;;5.76;100.00
62201;BME280;48197;42.732;27.192;2023-03-19T01:19:47;100257.28;;;5.78;100.00
62201;BME280;48197;42.732;27.192;2023-03-19T01:22:14;100248.72;;;5.79;100.00
62201;BME280;48197;42.732;27.192;2023-03-19T01:24:42;100250.88;;;5.70;100.00
62201;BME280;48197;42.732;27.192;2023-03-19T01:27:08;100258.66;;;5.68;100.00
62201;BME280;48197;42.732;27.192;2023-03-19T01:29:34;100269.91;;;5.63;100.00
62201;BME280;48197;42.732;27.192;2023-03-19T01:32:01;100255.50;;;5.66;100.00
62201;BME280;48197;42.732;27.192;2023-03-19T01:34:28;100256.47;;;5.58;100.00
62201;BME280;48197;42.732;27.192;2023-03-19T01:36:54;100256.91;;;5.60;100.00
62201;BME280;48197;42.732;27.192;2023-03-19T01:39:21;100247.47;;;5.57;100.00
62201;BME280;48197;42.732;27.192;2023-03-19T01:41:48;100257.34;;;5.62;100.00
62201;BME280;48197;42.732;27.192;2023-03-19T01:44:31;100252.66;;;5.62;100.00
62201;BME280;48197;42.732;27.192;2023-03-19T01:46:58;100264.84;;;5.65;100.00
62201;BME280;48197;42.732;27.192;2023-03-19T01:49:25;100261.75;;;5.66;100.00
62201;BME280;48197;42.732;27.192;2023-03-19T01:51:53;100272.28;;;5.64;100.00
62201;BME280;48197;42.732;27.192;2023-03-19T01:54:21;100263.34;;;5.67;100.00
62201;BME280;48197;42.732;27.192;2023-03-19T01:56:58;100263.72;;;5.66;100.00
62201;BME280;48197;42.732;27.192;2023-03-19T01:59:27;100265.50;;;5.58;100.00
62201;BME280;48197;42.732;27.192;2023-03-19T02:02:40;100263.72;;;5.66;100.00
62201;BME280;48197;42.732;27.192;2023-03-19T02:04:42;100264.59;;;5.70;100.00
62201;BME280;48197;42.732;27.192;2023-03-19T02:07:10;100256.63;;;5.65;100.00
62201;BME280;48197;42.732;27.192;2023-03-19T02:09:37;100275.38;;;5.63;100.00
62201;BME280;48197;42.732;27.192;2023-03-19T02:12:05;100257.06;;;5.67;100.00
62201;BME280;48197;42.732;27.192;2023-03-19T02:14:33;100257.41;;;5.65;100.00
62201;BME280;48197;42.732;27.192;2023-03-19T02:16:59;100260.97;;;5.66;100.00
62201;BME280;48197;42.732;27.192;2023-03-19T02:19:38;100258.66;;;5.68;100.00
62201;BME280;48197;42.732;27.192;2023-03-19T02:22:06;100258.22;;;5.66;100.00
62201;BME280;48197;42.732;27.192;2023-03-19T02:24:37;100264.16;;;5.68;100.00
62201;BME280;48197;42.732;27.192;2023-03-19T02:27:05;100266.97;;;5.71;100.00
62201;BME280;48197;42.732;27.192;2023-03-19T02:29:32;100256.41;;;5.73;100.00
62201;BME280;48197;42.732;27.192;2023-03-19T02:31:59;100256.00;;;5.71;100.00
62201;BME280;48197;42.732;27.192;2023-03-19T02:36:58;100271.00;;;5.78;100.00
62201;BME280;48197;42.732;27.192;2023-03-19T02:39:30;100275.72;;;5.77;100.00
62201;BME280;48197;42.732;27.192;2023-03-19T02:41:58;100266.75;;;5.80;100.00
62201;BME280;48197;42.732;27.192;2023-03-19T02:44:26;100278.09;;;5.79;100.00
62201;BME280;48197;42.732;27.192;2023-03-19T02:46:53;100282.84;;;5.82;100.00
62201;BME280;48197;42.732;27.192;2023-03-19T02:49:19;100280.47;;;5.80;100.00
62201;BME280;48197;42.732;27.192;2023-03-19T02:51:46;100280.13;;;5.82;100.00
62201;BME280;48197;42.732;27.192;2023-03-19T02:54:12;100276.44;;;5.74;100.00
62201;BME280;48197;42.732;27.192;2023-03-19T02:56:39;100269.00;;;5.75;100.00
62201;BME280;48197;42.732;27.192;2023-03-19T02:59:05;100276.50;;;5.78;100.00
62201;BME280;48197;42.732;27.192;2023-03-19T03:01:32;100273.75;;;5.78;100.00
62201;BME280;48197;42.732;27.192;2023-03-19T03:03:59;100285.28;;;5.67;100.00
62201;BME280;48197;42.732;27.192;2023-03-19T03:06:25;100286.97;;;5.72;100.00
62201;BME280;48197;42.732;27.192;2023-03-19T03:08:52;100300.25;;;5.70;100.00
62201;BME280;48197;42.732;27.192;2023-03-19T03:11:18;100295.91;;;5.69;100.00
62201;BME280;48197;42.732;27.192;2023-03-19T03:13:45;100299.44;;;5.69;100.00
62201;BME280;48197;42.732;27.192;2023-03-19T03:16:12;100292.03;;;5.70;100.00
62201;BME280;48197;42.732;27.192;2023-03-19T03:18:38;100282.91;;;5.66;100.00
62201;BME280;48197;42.732;27.192;2023-03-19T03:21:05;100293.34;;;5.60;100.00
62201;BME280;48197;42.732;27.192;2023-03-19T03:23:31;100283.91;;;5.58;100.00
62201;BME280;48197;42.732;27.192;2023-03-19T03:25:58;100282.66;;;5.55;100.00
62201;BME280;48197;42.732;27.192;2023-03-19T03:28:24;100290.09;;;5.55;100.00
62201;BME280;48197;42.732;27.192;2023-03-19T03:30:56;100304.66;;;5.59;100.00
62201;BME280;48197;42.732;27.192;2023-03-19T03:33:23;100295.66;;;5.58;100.00
62201;BME280;48197;42.732;27.192;2023-03-19T03:35:50;100306.09;;;5.68;100.00
62201;BME280;48197;42.732;27.192;2023-03-19T03:38:17;100303.44;;;5.72;100.00
62201;BME280;48197;42.732;27.192;2023-03-19T03:40:43;100294.22;;;5.64;100.00
62201;BME280;48197;42.732;27.192;2023-03-19T03:43:10;100298.94;;;5.64;100.00
62201;BME280;48197;42.732;27.192;2023-03-19T03:45:36;100293.50;;;5.67;100.00
62201;BME280;48197;42.732;27.192;2023-03-19T03:48:03;100300.06;;;5.63;100.00
62201;BME280;48197;42.732;27.192;2023-03-19T03:50:29;100314.22;;;5.65;100.00
62201;BME280;48197;42.732;27.192;2023-03-19T03:52:57;100307.22;;;5.67;100.00
62201;BME280;48197;42.732;27.192;2023-03-19T03:55:23;100308.91;;;5.72;100.00
62201;BME280;48197;42.732;27.192;2023-03-19T03:57:49;100319.16;;;5.75;100.00
62201;BME280;48197;42.732;27.192;2023-03-19T04:00:17;100317.41;;;5.67;100.00
62201;BME280;48197;42.732;27.192;2023-03-19T04:02:44;100315.63;;;5.75;100.00
62201;BME280;48197;42.732;27.192;2023-03-19T04:05:11;100319.34;;;5.66;100.00
62201;BME280;48197;42.732;27.192;2023-03-19T04:07:37;100318.28;;;5.71;100.00
62201;BME280;48197;42.732;27.192;2023-03-19T04:10:04;100315.44;;;5.67;100.00
62201;BME280;48197;42.732;27.192;2023-03-19T04:12:31;100321.56;;;5.61;100.00
62201;BME280;48197;42.732;27.192;2023-03-19T04:14:58;100305.84;;;5.58;100.00
62201;BME280;48197;42.732;27.192;2023-03-19T04:17:24;100319.19;;;5.59;100.00
62201;BME280;48197;42.732;27.192;2023-03-19T04:19:51;100309.38;;;5.58;100.00
62201;BME280;48197;42.732;27.192;2023-03-19T04:22:18;100320.78;;;5.60;100.00
62201;BME280;48197;42.732;27.192;2023-03-19T04:24:45;100319.69;;;5.65;100.00
62201;BME280;48197;42.732;27.192;2023-03-19T04:27:11;100319.63;;;5.61;100.00
62201;BME280;48197;42.732;27.192;2023-03-19T04:29:37;100330.31;;;5.66;100.00
62201;BME280;48197;42.732;27.192;2023-03-19T04:32:03;100325.81;;;5.74;100.00
62201;BME280;48197;42.732;27.192;2023-03-19T04:34:30;100333.22;;;5.73;100.00
62201;BME280;48197;42.732;27.192;2023-03-19T04:36:56;100327.38;;;5.75;100.00
62201;BME280;48197;42.732;27.192;2023-03-19T04:39:23;100334.53;;;5.80;100.00
62201;BME280;48197;42.732;27.192;2023-03-19T04:41:51;100345.50;;;5.80;100.00
62201;BME280;48197;42.732;27.192;2023-03-19T04:44:17;100344.56;;;5.72;100.00
62201;BME280;48197;42.732;27.192;2023-03-19T04:46:44;100352.59;;;5.81;100.00
62201;BME280;48197;42.732;27.192;2023-03-19T04:49:11;100347.56;;;5.83;100.00
62201;BME280;48197;42.732;27.192;2023-03-19T04:51:37;100344.72;;;5.79;100.00
62201;BME280;48197;42.732;27.192;2023-03-19T04:54:04;100346.25;;;5.77;100.00
62201;BME280;48197;42.732;27.192;2023-03-19T04:56:31;100341.97;;;5.79;100.00
62201;BME280;48197;42.732;27.192;2023-03-19T04:58:57;100356.69;;;5.71;100.00
62201;BME280;48197;42.732;27.192;2023-03-19T05:01:24;100359.16;;;5.76;100.00
62201;BME280;48197;42.732;27.192;2023-03-19T05:03:51;100354.97;;;5.82;100.00
62201;BME280;48197;42.732;27.192;2023-03-19T05:06:17;100366.91;;;5.90;100.00
62201;BME280;48197;42.732;27.192;2023-03-19T05:08:45;100371.88;;;6.00;100.00
62201;BME280;48197;42.732;27.192;2023-03-19T05:11:12;100360.41;;;6.14;100.00
62201;BME280;48197;42.732;27.192;2023-03-19T05:13:39;100366.97;;;6.25;100.00
62201;BME280;48197;42.732;27.192;2023-03-19T05:16:06;100363.56;;;6.32;100.00
62201;BME280;48197;42.732;27.192;2023-03-19T05:18:32;100368.50;;;6.42;100.00
62201;BME280;48197;42.732;27.192;2023-03-19T05:20:59;100372.09;;;6.46;100.00
62201;BME280;48197;42.732;27.192;2023-03-19T05:23:26;100364.28;;;6.48;100.00
62201;BME280;48197;42.732;27.192;2023-03-19T05:25:51;100377.53;;;6.62;100.00
62201;BME280;48197;42.732;27.192;2023-03-19T05:28:17;100375.34;;;6.71;100.00
62201;BME280;48197;42.732;27.192;2023-03-19T05:30:44;100364.78;;;6.73;100.00
62201;BME280;48197;42.732;27.192;2023-03-19T05:33:10;100378.81;;;6.68;100.00
62201;BME280;48197;42.732;27.192;2023-03-19T05:35:37;100377.22;;;6.67;100.00
62201;BME280;48197;42.732;27.192;2023-03-19T05:38:04;100380.19;;;6.78;100.00
62201;BME280;48197;42.732;27.192;2023-03-19T05:40:31;100385.88;;;6.89;100.00
62201;BME280;48197;42.732;27.192;2023-03-19T05:42:59;100382.22;;;6.81;100.00
62201;BME280;48197;42.732;27.192;2023-03-19T05:45:26;100383.94;;;6.70;100.00
62201;BME280;48197;42.732;27.192;2023-03-19T05:47:52;100386.41;;;6.75;100.00
62201;BME280;48197;42.732;27.192;2023-03-19T05:50:18;100379.81;;;6.80;100.00
62201;BME280;48197;42.732;27.192;2023-03-19T05:52:46;100384.47;;;6.75;100.00
62201;BME280;48197;42.732;27.192;2023-03-19T05:55:12;100391.34;;;6.66;100.00
62201;BME280;48197;42.732;27.192;2023-03-19T05:57:39;100385.09;;;6.69;100.00
62201;BME280;48197;42.732;27.192;2023-03-19T06:00:06;100384.88;;;6.78;100.00
62201;BME280;48197;42.732;27.192;2023-03-19T06:02:34;100381.34;;;6.97;100.00
62201;BME280;48197;42.732;27.192;2023-03-19T06:05:00;100380.09;;;6.94;100.00
62201;BME280;48197;42.732;27.192;2023-03-19T06:07:27;100369.97;;;6.98;100.00
62201;BME280;48197;42.732;27.192;2023-03-19T06:09:53;100375.09;;;7.00;100.00
62201;BME280;48197;42.732;27.192;2023-03-19T06:12:20;100372.03;;;6.82;100.00
62201;BME280;48197;42.732;27.192;2023-03-19T06:18:04;100383.44;;;6.64;100.00
62201;BME280;48197;42.732;27.192;2023-03-19T06:20:31;100374.13;;;6.49;100.00
62201;BME280;48197;42.732;27.192;2023-03-19T06:22:58;100381.94;;;6.47;100.00
62201;BME280;48197;42.732;27.192;2023-03-19T06:25:24;100381.78;;;6.60;100.00
62201;BME280;48197;42.732;27.192;2023-03-19T06:27:51;100390.25;;;6.51;100.00
62201;BME280;48197;42.732;27.192;2023-03-19T06:30:18;100381.44;;;6.81;100.00
62201;BME280;48197;42.732;27.192;2023-03-19T06:32:44;100381.88;;;7.06;100.00
62201;BME280;48197;42.732;27.192;2023-03-19T06:35:10;100379.53;;;7.27;100.00
62201;BME280;48197;42.732;27.192;2023-03-19T06:37:37;100378.31;;;7.48;100.00
62201;BME280;48197;42.732;27.192;2023-03-19T06:40:04;100378.59;;;7.66;100.00
62201;BME280;48197;42.732;27.192;2023-03-19T06:42:31;100383.50;;;8.03;100.00
62201;BME280;48197;42.732;27.192;2023-03-19T06:44:57;100383.53;;;8.06;100.00
62201;BME280;48197;42.732;27.192;2023-03-19T06:47:24;100384.66;;;8.02;100.00
62201;BME280;48197;42.732;27.192;2023-03-19T06:49:51;100389.28;;;7.94;100.00
62201;BME280;48197;42.732;27.192;2023-03-19T06:52:17;100406.88;;;7.89;100.00
62201;BME280;48197;42.732;27.192;2023-03-19T06:54:43;100409.03;;;7.76;100.00
62201;BME280;48197;42.732;27.192;2023-03-19T06:57:10;100400.47;;;7.82;100.00
62201;BME280;48197;42.732;27.192;2023-03-19T06:59:37;100395.47;;;7.87;100.00
62201;BME280;48197;42.732;27.192;2023-03-19T07:02:04;100394.84;;;7.74;100.00
62201;BME280;48197;42.732;27.192;2023-03-19T07:04:30;100392.72;;;7.87;100.00
62201;BME280;48197;42.732;27.192;2023-03-19T07:06:57;100384.97;;;7.96;100.00
62201;BME280;48197;42.732;27.192;2023-03-19T07:09:23;100401.78;;;7.65;100.00
62201;BME280;48197;42.732;27.192;2023-03-19T07:11:50;100395.69;;;7.78;100.00
62201;BME280;48197;42.732;27.192;2023-03-19T07:14:16;100405.69;;;7.64;100.00
62201;BME280;48197;42.732;27.192;2023-03-19T07:16:43;100401.53;;;7.73;100.00
62201;BME280;48197;42.732;27.192;2023-03-19T07:19:09;100423.59;;;7.77;100.00
62201;BME280;48197;42.732;27.192;2023-03-19T07:21:36;100417.84;;;7.86;100.00
62201;BME280;48197;42.732;27.192;2023-03-19T07:24:03;100412.38;;;7.89;100.00
62201;BME280;48197;42.732;27.192;2023-03-19T07:26:30;100423.53;;;7.73;100.00
62201;BME280;48197;42.732;27.192;2023-03-19T07:28:57;100434.41;;;7.89;100.00
62201;BME280;48197;42.732;27.192;2023-03-19T07:31:23;100421.91;;;7.69;100.00
62201;BME280;48197;42.732;27.192;2023-03-19T07:33:50;100424.28;;;7.70;100.00
62201;BME280;48197;42.732;27.192;2023-03-19T07:36:16;100420.25;;;7.87;100.00
62201;BME280;48197;42.732;27.192;2023-03-19T07:38:42;100433.84;;;8.30;100.00
62201;BME280;48197;42.732;27.192;2023-03-19T07:41:09;100426.56;;;8.41;100.00
62201;BME280;48197;42.732;27.192;2023-03-19T07:43:36;100421.84;;;8.42;100.00
62201;BME280;48197;42.732;27.192;2023-03-19T07:46:02;100425.81;;;8.17;100.00
62201;BME280;48197;42.732;27.192;2023-03-19T07:48:29;100416.84;;;8.24;100.00
62201;BME280;48197;42.732;27.192;2023-03-19T07:50:56;100419.41;;;8.40;100.00
62201;BME280;48197;42.732;27.192;2023-03-19T07:53:22;100415.66;;;8.82;100.00
62201;BME280;48197;42.732;27.192;2023-03-19T07:55:49;100409.31;;;9.53;100.00
62201;BME280;48197;42.732;27.192;2023-03-19T07:58:15;100423.94;;;10.09;100.00
62201;BME280;48197;42.732;27.192;2023-03-19T08:00:42;100423.56;;;10.10;100.00
62201;BME280;48197;42.732;27.192;2023-03-19T08:03:10;100420.69;;;9.92;100.00
62201;BME280;48197;42.732;27.192;2023-03-19T08:05:36;100423.63;;;9.66;100.00
62201;BME280;48197;42.732;27.192;2023-03-19T08:08:03;100421.66;;;9.25;100.00
62201;BME280;48197;42.732;27.192;2023-03-19T08:10:30;100426.34;;;8.87;100.00
62201;BME280;48197;42.732;27.192;2023-03-19T08:12:57;100420.63;;;8.69;100.00
62201;BME280;48197;42.732;27.192;2023-03-19T08:15:23;100431.03;;;8.53;100.00
62201;BME280;48197;42.732;27.192;2023-03-19T08:17:56;100428.28;;;8.26;100.00
62201;BME280;48197;42.732;27.192;2023-03-19T08:20:24;100434.06;;;8.17;100.00
62201;BME280;48197;42.732;27.192;2023-03-19T08:22:51;100435.00;;;8.02;100.00
62201;BME280;48197;42.732;27.192;2023-03-19T08:25:18;100433.59;;;8.12;100.00
62201;BME280;48197;42.732;27.192;2023-03-19T08:27:44;100433.84;;;8.56;100.00
62201;BME280;48197;42.732;27.192;2023-03-19T08:30:11;100432.41;;;9.00;100.00
62201;BME280;48197;42.732;27.192;2023-03-19T08:32:36;100426.41;;;8.91;100.00
62201;BME280;48197;42.732;27.192;2023-03-19T08:35:03;100429.69;;;8.70;100.00
62201;BME280;48197;42.732;27.192;2023-03-19T08:37:31;100432.72;;;8.61;100.00
62201;BME280;48197;42.732;27.192;2023-03-19T08:39:57;100425.00;;;8.74;100.00
62201;BME280;48197;42.732;27.192;2023-03-19T08:42:24;100414.59;;;8.94;100.00
62201;BME280;48197;42.732;27.192;2023-03-19T08:44:51;100420.94;;;8.94;100.00
62201;BME280;48197;42.732;27.192;2023-03-19T08:47:17;100419.09;;;9.06;100.00
62201;BME280;48197;42.732;27.192;2023-03-19T08:49:44;100418.16;;;9.28;100.00
62201;BME280;48197;42.732;27.192;2023-03-19T08:52:10;100418.00;;;9.55;100.00
62201;BME280;48197;42.732;27.192;2023-03-19T08:54:37;100415.50;;;9.87;100.00
62201;BME280;48197;42.732;27.192;2023-03-19T08:57:04;100413.28;;;9.55;100.00
62201;BME280;48197;42.732;27.192;2023-03-19T08:59:32;100422.53;;;9.33;100.00
62201;BME280;48197;42.732;27.192;2023-03-19T09:01:58;100416.06;;;9.59;100.00
62201;BME280;48197;42.732;27.192;2023-03-19T09:04:25;100409.34;;;9.56;100.00
62201;BME280;48197;42.732;27.192;2023-03-19T09:06:51;100417.19;;;10.02;100.00
62201;BME280;48197;42.732;27.192;2023-03-19T09:09:20;100405.66;;;10.41;100.00
62201;BME280;48197;42.732;27.192;2023-03-19T09:11:46;100402.19;;;10.62;100.00
62201;BME280;48197;42.732;27.192;2023-03-19T09:14:13;100403.47;;;10.17;100.00
62201;BME280;48197;42.732;27.192;2023-03-19T09:16:41;100401.41;;;9.99;100.00
62201;BME280;48197;42.732;27.192;2023-03-19T09:19:08;100395.97;;;10.14;100.00
62201;BME280;48197;42.732;27.192;2023-03-19T09:21:35;100389.28;;;10.99;100.00
62201;BME280;48197;42.732;27.192;2023-03-19T09:24:02;100389.38;;;11.42;100.00
62201;BME280;48197;42.732;27.192;2023-03-19T09:26:29;100366.81;;;11.58;96.85
62201;BME280;48197;42.732;27.192;2023-03-19T09:28:56;100383.31;;;10.90;98.53
62201;BME280;48197;42.732;27.192;2023-03-19T09:31:24;100398.66;;;10.69;100.00
62201;BME280;48197;42.732;27.192;2023-03-19T09:33:50;100392.81;;;10.92;100.00
62201;BME280;48197;42.732;27.192;2023-03-19T09:36:16;100384.97;;;11.12;99.01
62201;BME280;48197;42.732;27.192;2023-03-19T09:38:43;100393.94;;;10.70;99.17
62201;BME280;48197;42.732;27.192;2023-03-19T10:09:39;100356.53;;;11.22;94.35
62201;BME280;48197;42.732;27.192;2023-03-19T10:15:09;100361.03;;;10.39;99.15
62201;BME280;48197;42.732;27.192;2023-03-19T10:17:51;100352.69;;;10.32;99.74
62201;BME280;48197;42.732;27.192;2023-03-19T10:22:49;100328.84;;;11.80;95.23
62201;BME280;48197;42.732;27.192;2023-03-19T10:25:19;100344.25;;;12.02;91.41
62201;BME280;48197;42.732;27.192;2023-03-19T10:27:49;100331.63;;;11.40;92.86
62201;BME280;48197;42.732;27.192;2023-03-19T10:30:19;100340.31;;;11.32;94.90
62201;BME280;48197;42.732;27.192;2023-03-19T10:32:48;100324.13;;;11.41;94.14
62201;BME280;48197;42.732;27.192;2023-03-19T10:35:18;100334.00;;;11.10;95.05
62201;BME280;48197;42.732;27.192;2023-03-19T10:37:46;100331.63;;;11.48;94.77
62201;BME280;48197;42.732;27.192;2023-03-19T10:40:23;100331.56;;;12.09;93.04
62201;BME280;48197;42.732;27.192;2023-03-19T10:43:02;100328.00;;;12.12;89.92
62201;BME280;48197;42.732;27.192;2023-03-19T10:45:33;100322.13;;;11.67;91.60
62201;BME280;48197;42.732;27.192;2023-03-19T10:48:01;100328.47;;;11.63;93.46
62201;BME280;48197;42.732;27.192;2023-03-19T10:50:35;100318.13;;;12.14;90.50
62201;BME280;48197;42.732;27.192;2023-03-19T10:53:06;100309.56;;;12.72;88.94
62201;BME280;48197;42.732;27.192;2023-03-19T10:55:50;100317.69;;;12.97;85.83
62201;BME280;48197;42.732;27.192;2023-03-19T10:58:19;100307.59;;;13.32;85.17
62201;BME280;48197;42.732;27.192;2023-03-19T11:00:46;100307.19;;;13.26;83.27
62201;BME280;48197;42.732;27.192;2023-03-19T11:03:30;100294.66;;;13.07;82.31
62201;BME280;48197;42.732;27.192;2023-03-19T11:06:05;100290.03;;;12.86;83.00
62201;BME280;48197;42.732;27.192;2023-03-19T11:08:35;100290.81;;;12.90;86.12
62201;BME280;48197;42.732;27.192;2023-03-19T11:11:03;100288.78;;;12.98;83.01
62201;BME280;48197;42.732;27.192;2023-03-19T11:13:29;100279.16;;;13.13;84.50
62201;BME280;48197;42.732;27.192;2023-03-19T11:15:59;100286.47;;;12.82;84.76
62201;BME280;48197;42.732;27.192;2023-03-19T11:18:29;100281.00;;;13.31;84.70
62201;BME280;48197;42.732;27.192;2023-03-19T11:20:58;100280.16;;;14.17;78.97
62201;BME280;48197;42.732;27.192;2023-03-19T11:23:28;100279.94;;;14.65;78.73
62201;BME280;48197;42.732;27.192;2023-03-19T11:25:55;100259.88;;;15.05;74.73
62201;BME280;48197;42.732;27.192;2023-03-19T11:28:24;100261.75;;;14.57;71.19
62201;BME280;48197;42.732;27.192;2023-03-19T11:38:48;100250.47;;;14.95;68.52
62201;BME280;48197;42.732;27.192;2023-03-19T11:41:26;100248.56;;;15.16;68.10
62201;BME280;48197;42.732;27.192;2023-03-19T11:44:00;100243.06;;;15.12;67.24
62201;BME280;48197;42.732;27.192;2023-03-19T11:49:11;100230.50;;;15.91;66.63
62201;BME280;48197;42.732;27.192;2023-03-19T11:54:21;100226.25;;;15.63;64.01
62201;BME280;48197;42.732;27.192;2023-03-19T11:56:57;100233.69;;;15.26;64.62
62201;BME280;48197;42.732;27.192;2023-03-19T12:07:11;100219.81;;;15.66;64.25
62201;BME280;48197;42.732;27.192;2023-03-19T12:14:57;100211.72;;;16.51;60.49
62201;BME280;48197;42.732;27.192;2023-03-19T12:19:58;100211.72;;;16.68;59.86
62201;BME280;48197;42.732;27.192;2023-03-19T12:22:36;100198.50;;;16.36;59.41
62201;BME280;48197;42.732;27.192;2023-03-19T12:25:08;100195.53;;;16.06;61.64
62201;BME280;48197;42.732;27.192;2023-03-19T12:27:46;100198.28;;;16.63;58.96
62201;BME280;48197;42.732;27.192;2023-03-19T12:30:33;100204.13;;;16.68;58.43
62201;BME280;48197;42.732;27.192;2023-03-19T12:35:34;100187.38;;;16.68;58.56
62201;BME280;48197;42.732;27.192;2023-03-19T12:40:46;100191.69;;;16.73;56.67
62201;BME280;48197;42.732;27.192;2023-03-19T12:46:21;100191.09;;;17.44;54.82
62201;BME280;48197;42.732;27.192;2023-03-19T12:48:49;100180.22;;;17.62;55.63
62201;BME280;48197;42.732;27.192;2023-03-19T12:51:18;100185.19;;;17.42;54.54
62201;BME280;48197;42.732;27.192;2023-03-19T12:56:13;100180.03;;;18.24;53.51
62201;BME280;48197;42.732;27.192;2023-03-19T12:58:52;100173.22;;;18.12;51.38
62201;BME280;48197;42.732;27.192;2023-03-19T13:01:22;100183.84;;;17.75;51.94
62201;BME280;48197;42.732;27.192;2023-03-19T13:03:53;100179.53;;;17.87;50.86
62201;BME280;48197;42.732;27.192;2023-03-19T13:06:22;100178.44;;;17.68;50.70
62201;BME280;48197;42.732;27.192;2023-03-19T13:11:50;100172.06;;;17.84;50.43
62201;BME280;48197;42.732;27.192;2023-03-19T13:21:58;100166.63;;;18.83;48.57
62201;BME280;48197;42.732;27.192;2023-03-19T13:24:26;100169.84;;;18.69;48.69
62201;BME280;48197;42.732;27.192;2023-03-19T13:26:54;100171.34;;;18.22;49.55
62201;BME280;48197;42.732;27.192;2023-03-19T13:29:22;100170.06;;;17.98;49.62
62201;BME280;48197;42.732;27.192;2023-03-19T13:31:49;100177.53;;;18.01;49.76
62201;BME280;48197;42.732;27.192;2023-03-19T13:37:31;100168.06;;;18.62;46.77
62201;BME280;48197;42.732;27.192;2023-03-19T13:39:33;100142.50;;;18.98;48.37
62201;BME280;48197;42.732;27.192;2023-03-19T13:42:15;100171.78;;;18.46;51.20
62201;BME280;48197;42.732;27.192;2023-03-19T13:52:45;100153.19;;;17.72;56.16
62201;BME280;48197;42.732;27.192;2023-03-19T13:57:57;100166.06;;;17.40;56.35
62201;BME280;48197;42.732;27.192;2023-03-19T14:03:23;100159.13;;;17.16;56.74
62201;BME280;48197;42.732;27.192;2023-03-19T14:05:50;100164.94;;;17.21;57.51
62201;BME280;48197;42.732;27.192;2023-03-19T14:08:21;100162.56;;;16.90;57.87
62201;BME280;48197;42.732;27.192;2023-03-19T14:10:50;100159.56;;;16.48;59.21
62201;BME280;48197;42.732;27.192;2023-03-19T14:13:23;100163.03;;;16.36;59.86
62201;BME280;48197;42.732;27.192;2023-03-19T14:15:51;100162.91;;;16.23;59.94
62201;BME280;48197;42.732;27.192;2023-03-19T14:18:20;100172.03;;;16.07;60.83
62201;BME280;48197;42.732;27.192;2023-03-19T14:20:56;100166.69;;;15.97;61.03
62201;BME280;48197;42.732;27.192;2023-03-19T14:23:24;100169.81;;;15.59;62.10
62201;BME280;48197;42.732;27.192;2023-03-19T14:28:19;100173.69;;;14.74;64.60
62201;BME280;48197;42.732;27.192;2023-03-19T14:30:48;100180.47;;;14.97;64.91
62201;BME280;48197;42.732;27.192;2023-03-19T14:33:19;100171.34;;;14.96;64.06